Time;durP1;ratioP1;P1;durP2;ratioP2;P2;SDS_P1;SDS_P2;PMS_P1;PMS_P2;Temp;Humidity;BMP_temperature;BMP_pressure;BME280_temperature;BME280_humidity;BME280_pressure;Samples;Min_cycle;Max_cycle;Signal;HPM_P1;HPM_P2
2023/12/12 00:00:17;;;;;;;6.47;2.13;;;;;;;;;;4971033;28;20018;-64
2023/12/12 00:02:44;;;;;;;4.55;1.83;;;;;;;;;;4969824;28;20402;-65
2023/12/12 00:05:09;;;;;;;7.90;2.00;;;;;;;;;;4970326;28;20015;-65
2023/12/12 00:07:34;;;;;;;4.03;2.13;;;;;;;;;;4970381;28;20026;-65
2023/12/12 00:09:59;;;;;;;7.78;2.10;;;;;;;;;;4970127;28;20030;-65
2023/12/12 00:12:25;;;;;;;5.57;2.00;;;;;;;;;;4970554;28;20034;-65
2023/12/12 00:14:50;;;;;;;6.13;1.98;;;;;;;;;;4967293;28;20027;-65
2023/12/12 00:17:15;;;;;;;4.13;1.85;;;;;;;;;;4967255;28;20034;-63
2023/12/12 00:19:42;;;;;;;4.68;1.90;;;;;;;;;;4964627;28;20018;-65
2023/12/12 00:22:07;;;;;;;8.05;2.22;;;;;;;;;;4970555;28;20011;-63
2023/12/12 00:24:32;;;;;;;3.92;2.10;;;;;;;;;;4969243;28;20062;-64
2023/12/12 00:26:58;;;;;;;6.63;2.42;;;;;;;;;;4969682;28;20478;-64
2023/12/12 00:29:23;;;;;;;4.55;2.03;;;;;;;;;;4970358;28;20521;-65
2023/12/12 00:31:48;;;;;;;4.13;1.90;;;;;;;;;;4970532;28;20027;-65
2023/12/12 00:34:13;;;;;;;7.25;2.75;;;;;;;;;;4970169;28;20022;-65
2023/12/12 00:36:38;;;;;;;6.18;2.38;;;;;;;;;;4969605;28;20034;-66
2023/12/12 00:39:04;;;;;;;5.20;1.98;;;;;;;;;;4972429;28;20094;-65
2023/12/12 00:41:32;;;;;;;8.90;1.88;;;;;;;;;;4969513;28;20042;-65
2023/12/12 00:43:58;;;;;;;8.38;2.17;;;;;;;;;;4973157;28;20121;-65
2023/12/12 00:46:23;;;;;;;6.50;1.90;;;;;;;;;;4969097;28;20129;-66
2023/12/12 00:48:48;;;;;;;3.78;1.75;;;;;;;;;;4970698;28;20027;-62
2023/12/12 00:51:13;;;;;;;5.05;2.28;;;;;;;;;;4969755;28;20479;-64
2023/12/12 00:53:38;;;;;;;5.53;2.30;;;;;;;;;;4969293;28;20089;-64
2023/12/12 00:56:04;;;;;;;4.00;1.85;;;;;;;;;;4961202;28;20069;-63
2023/12/12 00:58:29;;;;;;;8.43;2.20;;;;;;;;;;4970976;28;20026;-64
2023/12/12 01:00:54;;;;;;;7.68;2.10;;;;;;;;;;4973720;28;20484;-64
2023/12/12 01:03:19;;;;;;;5.72;1.92;;;;;;;;;;4973097;28;20487;-64
2023/12/12 01:05:44;;;;;;;5.28;2.17;;;;;;;;;;4973069;28;20085;-64
2023/12/12 01:08:10;;;;;;;7.03;2.35;;;;;;;;;;4973370;28;20057;-65
2023/12/12 01:10:35;;;;;;;5.05;2.05;;;;;;;;;;4973918;28;20023;-64
2023/12/12 01:13:01;;;;;;;5.60;1.95;;;;;;;;;;4974185;28;20537;-64
2023/12/12 01:15:27;;;;;;;5.10;2.47;;;;;;;;;;4973626;28;20071;-64
2023/12/12 01:17:52;;;;;;;6.63;2.22;;;;;;;;;;4973138;28;20724;-64
2023/12/12 01:20:17;;;;;;;7.43;2.38;;;;;;;;;;4968643;28;20022;-65
2023/12/12 01:22:43;;;;;;;6.97;2.05;;;;;;;;;;4974003;28;20387;-66
2023/12/12 01:25:08;;;;;;;4.35;2.13;;;;;;;;;;4972428;28;20025;-63
2023/12/12 01:27:33;;;;;;;7.55;2.72;;;;;;;;;;4973373;28;20026;-63
2023/12/12 01:29:58;;;;;;;5.05;2.67;;;;;;;;;;4974173;28;20025;-64
2023/12/12 01:32:24;;;;;;;7.28;2.63;;;;;;;;;;4972955;28;20035;-63
2023/12/12 01:34:49;;;;;;;4.07;2.17;;;;;;;;;;4973304;28;20042;-64
2023/12/12 01:37:14;;;;;;;8.05;2.63;;;;;;;;;;4974413;28;20543;-63
2023/12/12 01:39:40;;;;;;;7.80;2.40;;;;;;;;;;4971795;28;20021;-65
2023/12/12 01:42:05;;;;;;;4.45;2.13;;;;;;;;;;4968707;28;20015;-63
2023/12/12 01:44:30;;;;;;;5.82;2.10;;;;;;;;;;4975385;28;20102;-64
2023/12/12 01:46:55;;;;;;;6.75;2.08;;;;;;;;;;4966015;28;20022;-64
2023/12/12 01:49:21;;;;;;;4.22;1.77;;;;;;;;;;4973360;28;20023;-64
2023/12/12 01:51:46;;;;;;;5.95;2.00;;;;;;;;;;4973175;28;20110;-63
2023/12/12 01:54:12;;;;;;;2.33;1.33;;;;;;;;;;4972566;28;20025;-64
2023/12/12 01:56:38;;;;;;;4.22;1.70;;;;;;;;;;4964056;28;20067;-64
2023/12/12 01:59:04;;;;;;;2.75;1.42;;;;;;;;;;4973599;28;20025;-63
2023/12/12 02:01:30;;;;;;;2.47;1.40;;;;;;;;;;4970964;28;20542;-64
2023/12/12 02:03:56;;;;;;;6.43;1.60;;;;;;;;;;4973076;28;20109;-64
2023/12/12 02:06:22;;;;;;;4.30;1.60;;;;;;;;;;4971684;28;20394;-63
2023/12/12 02:08:50;;;;;;;3.78;1.38;;;;;;;;;;4964581;28;20034;-64
2023/12/12 02:11:16;;;;;;;1.67;1.13;;;;;;;;;;4971808;28;20019;-63
2023/12/12 02:13:41;;;;;;;4.38;1.60;;;;;;;;;;4973003;28;20034;-63
2023/12/12 02:16:07;;;;;;;3.55;1.20;;;;;;;;;;4965316;28;20594;-64
2023/12/12 02:18:32;;;;;;;3.60;1.60;;;;;;;;;;4972912;28;20441;-64
2023/12/12 02:21:00;;;;;;;4.00;1.48;;;;;;;;;;4972269;28;20597;-64
2023/12/12 02:23:28;;;;;;;3.55;1.52;;;;;;;;;;4972849;28;20387;-61
2023/12/12 02:25:54;;;;;;;4.05;1.40;;;;;;;;;;4972318;28;20022;-64
2023/12/12 02:28:20;;;;;;;4.88;1.50;;;;;;;;;;4973531;28;20207;-64
2023/12/12 02:30:45;;;;;;;2.65;1.25;;;;;;;;;;4972445;28;20064;-65
2023/12/12 02:33:10;;;;;;;3.75;1.02;;;;;;;;;;4972567;28;20034;-65
2023/12/12 02:35:35;;;;;;;4.68;1.35;;;;;;;;;;4971560;28;20035;-65
2023/12/12 02:38:01;;;;;;;4.70;1.75;;;;;;;;;;4974592;28;20023;-65
2023/12/12 02:40:26;;;;;;;2.97;1.52;;;;;;;;;;4971262;28;20039;-63
2023/12/12 02:42:51;;;;;;;3.58;1.63;;;;;;;;;;4975160;28;20026;-64
2023/12/12 02:45:16;;;;;;;3.78;1.52;;;;;;;;;;4967087;28;20031;-65
2023/12/12 02:47:41;;;;;;;3.50;1.60;;;;;;;;;;4970620;28;20039;-64
2023/12/12 02:50:07;;;;;;;4.65;1.85;;;;;;;;;;4972131;28;20022;-64
2023/12/12 02:52:32;;;;;;;11.23;1.90;;;;;;;;;;4971990;28;20033;-64
2023/12/12 02:54:57;;;;;;;7.82;1.92;;;;;;;;;;4968822;28;20031;-64
2023/12/12 02:57:23;;;;;;;7.00;1.90;;;;;;;;;;4971018;28;20035;-64
2023/12/12 02:59:48;;;;;;;3.20;1.60;;;;;;;;;;4972075;28;20034;-64
2023/12/12 03:02:14;;;;;;;3.88;1.70;;;;;;;;;;4970714;28;20014;-64
2023/12/12 03:04:45;;;;;;;5.50;1.85;;;;;;;;;;4971503;28;20018;-64
2023/12/12 03:07:11;;;;;;;7.55;2.03;;;;;;;;;;4971526;28;20482;-64
2023/12/12 03:09:36;;;;;;;5.32;1.95;;;;;;;;;;4971445;28;20030;-64
2023/12/12 03:12:02;;;;;;;4.60;1.63;;;;;;;;;;4971729;28;20054;-64
2023/12/12 03:14:30;;;;;;;4.45;1.95;;;;;;;;;;4971585;28;20057;-64
2023/12/12 03:16:56;;;;;;;4.35;1.83;;;;;;;;;;4964321;28;20015;-65
2023/12/12 03:19:22;;;;;;;3.85;1.70;;;;;;;;;;4965982;28;20051;-64
2023/12/12 03:21:47;;;;;;;3.55;1.63;;;;;;;;;;4964245;28;20030;-64
2023/12/12 03:24:13;;;;;;;5.68;1.90;;;;;;;;;;4970933;28;20414;-64
2023/12/12 03:26:38;;;;;;;3.85;1.60;;;;;;;;;;4970376;28;20027;-65
2023/12/12 03:29:03;;;;;;;4.35;1.63;;;;;;;;;;4971374;28;20011;-65
2023/12/12 03:31:28;;;;;;;3.92;1.55;;;;;;;;;;4970957;28;20406;-65
2023/12/12 03:33:53;;;;;;;8.02;1.70;;;;;;;;;;4971328;28;20011;-65
2023/12/12 03:36:19;;;;;;;6.18;1.90;;;;;;;;;;4970220;28;20166;-64
2023/12/12 03:38:44;;;;;;;4.00;1.90;;;;;;;;;;4973425;28;20023;-64
2023/12/12 03:41:10;;;;;;;7.50;2.22;;;;;;;;;;4970648;28;20019;-64
2023/12/12 03:43:35;;;;;;;5.60;2.30;;;;;;;;;;4973925;28;20058;-64
2023/12/12 03:46:01;;;;;;;5.32;2.05;;;;;;;;;;4964949;28;20446;-64
2023/12/12 03:48:26;;;;;;;7.10;2.00;;;;;;;;;;4971571;28;20023;-65
2023/12/12 03:50:51;;;;;;;3.30;1.88;;;;;;;;;;4970840;28;20014;-65
2023/12/12 03:53:16;;;;;;;3.22;1.67;;;;;;;;;;4970557;28;20023;-65
2023/12/12 03:55:41;;;;;;;6.20;2.30;;;;;;;;;;4964895;28;20663;-64
2023/12/12 03:58:07;;;;;;;8.57;2.40;;;;;;;;;;4970537;28;20409;-64
2023/12/12 04:00:32;;;;;;;4.75;1.90;;;;;;;;;;4970697;28;20612;-64
2023/12/12 04:02:57;;;;;;;7.88;2.03;;;;;;;;;;4969303;28;20029;-63
2023/12/12 04:05:22;;;;;;;4.68;2.03;;;;;;;;;;4970106;28;20065;-64
2023/12/12 04:07:47;;;;;;;6.95;1.90;;;;;;;;;;4967841;28;20102;-64
2023/12/12 04:10:13;;;;;;;7.30;2.40;;;;;;;;;;4970839;28;20426;-64
2023/12/12 04:12:38;;;;;;;5.50;2.25;;;;;;;;;;4970760;28;20081;-64
2023/12/12 04:15:04;;;;;;;7.78;2.50;;;;;;;;;;4965531;28;20019;-66
2023/12/12 04:17:30;;;;;;;7.97;2.50;;;;;;;;;;4967291;28;20034;-64
2023/12/12 04:19:55;;;;;;;6.47;2.22;;;;;;;;;;4970225;28;20522;-63
2023/12/12 04:22:20;;;;;;;4.97;1.95;;;;;;;;;;4970925;28;20023;-63
2023/12/12 04:24:45;;;;;;;7.78;3.08;;;;;;;;;;4969877;28;20089;-65
2023/12/12 04:27:11;;;;;;;5.28;2.25;;;;;;;;;;4970422;28;20034;-64
2023/12/12 04:29:36;;;;;;;6.57;2.33;;;;;;;;;;4970614;28;20406;-66
2023/12/12 04:32:02;;;;;;;7.07;2.63;;;;;;;;;;4969862;28;20426;-64
2023/12/12 04:34:30;;;;;;;4.55;2.17;;;;;;;;;;4969661;28;20022;-64
2023/12/12 04:36:55;;;;;;;4.50;2.13;;;;;;;;;;4969903;28;20077;-64
2023/12/12 04:39:20;;;;;;;8.25;2.10;;;;;;;;;;4972767;28;20868;-64
2023/12/12 04:41:45;;;;;;;6.60;2.50;;;;;;;;;;4969858;28;20102;-62
2023/12/12 04:44:11;;;;;;;4.95;1.83;;;;;;;;;;4973161;28;20015;-64
2023/12/12 04:46:36;;;;;;;6.15;2.40;;;;;;;;;;4969162;28;20033;-64
2023/12/12 04:49:02;;;;;;;5.10;2.10;;;;;;;;;;4970809;28;20007;-65
2023/12/12 04:51:27;;;;;;;8.27;2.03;;;;;;;;;;4969675;28;20034;-65
2023/12/12 04:53:53;;;;;;;7.68;2.22;;;;;;;;;;4969926;28;20019;-63
2023/12/12 04:56:18;;;;;;;6.50;2.20;;;;;;;;;;4968689;28;20035;-63
2023/12/12 04:58:43;;;;;;;12.35;2.22;;;;;;;;;;4969986;28;20101;-62
2023/12/12 05:01:09;;;;;;;6.53;2.28;;;;;;;;;;4968395;28;20483;-65
2023/12/12 05:03:34;;;;;;;7.03;2.70;;;;;;;;;;4969714;28;20471;-65
2023/12/12 05:06:00;;;;;;;5.03;2.45;;;;;;;;;;4969164;28;20038;-64
2023/12/12 05:08:25;;;;;;;9.35;2.40;;;;;;;;;;4969185;28;20026;-66
2023/12/12 05:10:50;;;;;;;6.57;2.03;;;;;;;;;;4970054;28;20023;-65
2023/12/12 05:13:17;;;;;;;9.43;2.75;;;;;;;;;;4970115;28;20364;-64
2023/12/12 05:15:43;;;;;;;6.20;2.33;;;;;;;;;;4968658;28;20046;-64
2023/12/12 05:18:08;;;;;;;5.20;2.50;;;;;;;;;;4970860;28;20053;-64
2023/12/12 05:20:33;;;;;;;6.45;2.67;;;;;;;;;;4964722;28;20027;-64
2023/12/12 05:22:58;;;;;;;8.43;2.67;;;;;;;;;;4970156;28;20022;-64
2023/12/12 05:25:24;;;;;;;6.13;2.78;;;;;;;;;;4968811;28;20038;-64
2023/12/12 05:27:49;;;;;;;5.40;2.42;;;;;;;;;;4969329;28;20027;-65
2023/12/12 05:30:14;;;;;;;8.73;2.78;;;;;;;;;;4969526;28;20057;-66
2023/12/12 05:32:39;;;;;;;4.80;2.35;;;;;;;;;;4968289;28;20150;-63
2023/12/12 05:35:07;;;;;;;7.57;2.65;;;;;;;;;;4968617;28;20407;-65
2023/12/12 05:37:32;;;;;;;5.97;2.28;;;;;;;;;;4970880;28;20022;-63
2023/12/12 05:39:57;;;;;;;8.27;2.58;;;;;;;;;;4967853;28;20512;-64
2023/12/12 05:42:23;;;;;;;6.20;2.90;;;;;;;;;;4971392;28;20478;-65
2023/12/12 05:44:48;;;;;;;7.75;2.22;;;;;;;;;;4969676;28;20023;-64
2023/12/12 05:47:13;;;;;;;11.10;2.85;;;;;;;;;;4971004;28;20030;-65
2023/12/12 05:49:38;;;;;;;5.43;2.30;;;;;;;;;;4971473;28;20031;-63
2023/12/12 05:52:04;;;;;;;7.30;2.28;;;;;;;;;;4971981;28;20015;-64
2023/12/12 05:54:29;;;;;;;7.25;2.65;;;;;;;;;;4967378;28;20224;-64
2023/12/12 05:56:54;;;;;;;4.97;2.40;;;;;;;;;;4963616;28;20089;-63
2023/12/12 05:59:19;;;;;;;5.57;2.20;;;;;;;;;;4970324;28;20062;-62
2023/12/12 06:01:45;;;;;;;6.93;2.55;;;;;;;;;;4969593;28;20094;-64
2023/12/12 06:04:11;;;;;;;8.02;2.65;;;;;;;;;;4969995;28;20025;-64
2023/12/12 06:06:41;;;;;;;9.50;2.95;;;;;;;;;;4970974;28;20106;-64
2023/12/12 06:09:06;;;;;;;5.97;2.40;;;;;;;;;;4968509;28;20023;-63
2023/12/12 06:11:31;;;;;;;4.90;2.28;;;;;;;;;;4972221;28;20138;-64
2023/12/12 06:13:57;;;;;;;7.93;3.00;;;;;;;;;;4965354;28;20031;-65
2023/12/12 06:16:22;;;;;;;8.10;2.65;;;;;;;;;;4960981;28;20027;-65
2023/12/12 06:18:48;;;;;;;8.60;3.45;;;;;;;;;;4971028;28;20022;-65
2023/12/12 06:21:13;;;;;;;16.90;4.80;;;;;;;;;;4966294;28;20039;-65
2023/12/12 06:23:39;;;;;;;16.30;5.20;;;;;;;;;;4973159;28;20130;-64
2023/12/12 06:26:04;;;;;;;14.45;4.22;;;;;;;;;;4969117;28;20015;-64
2023/12/12 06:28:29;;;;;;;8.98;3.72;;;;;;;;;;4968791;28;20542;-64
2023/12/12 06:30:55;;;;;;;6.07;2.78;;;;;;;;;;4934249;28;1088358;-64
2023/12/12 06:33:23;;;;;;;6.25;2.90;;;;;;;;;;4972475;28;20023;-66
2023/12/12 06:35:49;;;;;;;8.05;3.30;;;;;;;;;;4962500;28;20023;-65
2023/12/12 06:38:14;;;;;;;7.25;2.95;;;;;;;;;;4970279;28;20476;-65
2023/12/12 06:40:39;;;;;;;6.18;2.53;;;;;;;;;;4970587;28;20607;-66
2023/12/12 06:43:04;;;;;;;9.45;3.55;;;;;;;;;;4974674;28;20463;-66
2023/12/12 06:45:29;;;;;;;7.78;2.92;;;;;;;;;;4971499;28;20509;-64
2023/12/12 06:47:55;;;;;;;6.80;2.67;;;;;;;;;;4971372;28;20450;-65
2023/12/12 06:50:21;;;;;;;10.88;2.85;;;;;;;;;;4975763;28;20077;-65
2023/12/12 06:52:46;;;;;;;10.93;2.58;;;;;;;;;;4971948;28;20031;-64
2023/12/12 06:55:12;;;;;;;5.57;2.72;;;;;;;;;;4966432;28;20023;-64
2023/12/12 06:57:37;;;;;;;6.53;2.53;;;;;;;;;;4968048;28;20388;-65
2023/12/12 07:00:06;;;;;;;7.13;2.67;;;;;;;;;;4971892;28;20069;-65
2023/12/12 07:02:31;;;;;;;9.95;3.38;;;;;;;;;;4971031;28;20133;-66
2023/12/12 07:04:56;;;;;;;8.93;2.72;;;;;;;;;;4972089;28;20229;-63
2023/12/12 07:07:21;;;;;;;11.13;3.00;;;;;;;;;;4973766;28;20029;-67
2023/12/12 07:09:47;;;;;;;6.15;2.67;;;;;;;;;;4973187;28;20023;-65
2023/12/12 07:12:12;;;;;;;9.95;2.83;;;;;;;;;;4974473;28;20027;-65
2023/12/12 07:14:38;;;;;;;13.32;3.17;;;;;;;;;;4968584;28;20548;-63
2023/12/12 07:17:03;;;;;;;13.05;3.33;;;;;;;;;;4970230;28;20027;-64
2023/12/12 07:19:29;;;;;;;7.80;2.92;;;;;;;;;;4970545;28;20030;-67
2023/12/12 07:21:54;;;;;;;8.90;3.40;;;;;;;;;;4971336;28;20049;-64
2023/12/12 07:24:19;;;;;;;14.38;3.47;;;;;;;;;;4971171;28;20025;-63
2023/12/12 07:26:45;;;;;;;10.85;3.55;;;;;;;;;;4970105;28;20390;-64
2023/12/12 07:29:11;;;;;;;6.00;3.03;;;;;;;;;;4971458;28;20386;-66
2023/12/12 07:31:37;;;;;;;7.65;3.22;;;;;;;;;;4970377;28;20106;-65
2023/12/12 07:34:02;;;;;;;10.13;3.78;;;;;;;;;;4970633;28;20089;-66
2023/12/12 07:36:27;;;;;;;7.63;3.58;;;;;;;;;;4969048;28;20097;-65
2023/12/12 07:38:53;;;;;;;11.35;4.03;;;;;;;;;;4974085;28;20030;-66
2023/12/12 07:41:18;;;;;;;14.88;3.80;;;;;;;;;;4970399;28;20103;-67
2023/12/12 07:43:43;;;;;;;8.93;3.95;;;;;;;;;;4972396;28;20026;-65
2023/12/12 07:46:09;;;;;;;9.43;3.75;;;;;;;;;;4970112;28;20014;-65
2023/12/12 07:48:34;;;;;;;13.55;4.20;;;;;;;;;;4973475;28;20026;-66
2023/12/12 07:50:59;;;;;;;14.77;4.40;;;;;;;;;;4967918;28;20027;-68
2023/12/12 07:53:24;;;;;;;11.20;3.78;;;;;;;;;;4970713;28;20030;-67
2023/12/12 07:55:50;;;;;;;9.15;4.60;;;;;;;;;;4960440;28;20026;-66
2023/12/12 07:58:15;;;;;;;11.07;3.88;;;;;;;;;;4970420;28;20442;-65
2023/12/12 08:00:40;;;;;;;9.55;3.92;;;;;;;;;;4971131;28;20033;-65
2023/12/12 08:03:06;;;;;;;11.40;4.18;;;;;;;;;;4969434;28;20034;-67
2023/12/12 08:05:31;;;;;;;10.45;4.65;;;;;;;;;;4967760;28;20019;-64
2023/12/12 08:07:59;;;;;;;11.27;5.05;;;;;;;;;;4969003;28;20030;-65
2023/12/12 08:10:25;;;;;;;19.48;6.38;;;;;;;;;;4967542;28;20022;-63
2023/12/12 08:12:50;;;;;;;15.68;5.28;;;;;;;;;;4970547;28;20034;-64
2023/12/12 08:15:15;;;;;;;15.95;4.60;;;;;;;;;;4959626;28;20038;-67
2023/12/12 08:17:40;;;;;;;14.35;4.85;;;;;;;;;;4969083;28;20038;-65
2023/12/12 08:20:06;;;;;;;16.15;5.45;;;;;;;;;;4969830;28;20018;-65
2023/12/12 08:22:31;;;;;;;14.82;5.18;;;;;;;;;;4968719;28;20018;-65
2023/12/12 08:24:56;;;;;;;16.05;4.75;;;;;;;;;;4964504;28;20034;-65
2023/12/12 08:27:22;;;;;;;16.73;5.43;;;;;;;;;;4960513;28;20031;-65
2023/12/12 08:29:47;;;;;;;15.13;4.88;;;;;;;;;;4961526;28;20035;-65
2023/12/12 08:32:12;;;;;;;17.70;6.45;;;;;;;;;;4964378;28;20033;-64
2023/12/12 08:34:38;;;;;;;17.55;5.43;;;;;;;;;;4968674;28;20023;-64
2023/12/12 08:37:03;;;;;;;13.90;4.90;;;;;;;;;;4969339;28;20012;-62
2023/12/12 08:39:30;;;;;;;15.77;4.40;;;;;;;;;;4970735;28;20561;-65
2023/12/12 08:41:56;;;;;;;10.75;4.28;;;;;;;;;;4969248;28;20101;-64
2023/12/12 08:44:21;;;;;;;15.98;4.85;;;;;;;;;;4969552;28;20026;-65
2023/12/12 08:46:46;;;;;;;13.98;4.53;;;;;;;;;;4967786;28;20014;-65
2023/12/12 08:49:12;;;;;;;10.77;4.35;;;;;;;;;;4963878;28;20053;-65
2023/12/12 08:51:37;;;;;;;16.73;4.90;;;;;;;;;;4965667;28;20533;-64
2023/12/12 08:54:02;;;;;;;22.80;6.20;;;;;;;;;;4963367;28;20021;-64
2023/12/12 08:56:28;;;;;;;15.27;5.57;;;;;;;;;;4961541;28;20023;-66
2023/12/12 08:58:54;;;;;;;11.35;6.35;;;;;;;;;;4964508;28;20394;-66
2023/12/12 09:01:19;;;;;;;11.23;4.95;;;;;;;;;;4964754;28;20034;-67
2023/12/12 09:03:45;;;;;;;15.10;5.75;;;;;;;;;;4962665;28;20684;-65
2023/12/12 09:06:11;;;;;;;12.77;4.18;;;;;;;;;;4967686;28;20010;-64
2023/12/12 09:08:36;;;;;;;8.98;3.78;;;;;;;;;;4961309;28;20030;-65
2023/12/12 09:11:02;;;;;;;11.27;3.92;;;;;;;;;;4967393;28;20031;-66
2023/12/12 09:13:27;;;;;;;9.27;4.68;;;;;;;;;;4965977;28;20034;-65
2023/12/12 09:15:53;;;;;;;24.17;5.43;;;;;;;;;;4962455;28;20035;-64
2023/12/12 09:18:18;;;;;;;10.75;4.45;;;;;;;;;;4966654;28;20039;-64
2023/12/12 09:20:43;;;;;;;15.60;5.05;;;;;;;;;;4965952;28;20039;-65
2023/12/12 09:23:08;;;;;;;13.93;5.72;;;;;;;;;;4972715;28;20644;-65
2023/12/12 09:25:34;;;;;;;12.30;4.90;;;;;;;;;;4973425;28;20491;-65
2023/12/12 09:27:59;;;;;;;9.38;4.40;;;;;;;;;;4972015;28;20023;-65
2023/12/12 09:30:24;;;;;;;8.50;4.15;;;;;;;;;;4973150;28;20027;-64
2023/12/12 09:32:49;;;;;;;9.60;4.03;;;;;;;;;;4970082;28;20037;-64
2023/12/12 09:35:15;;;;;;;12.00;4.55;;;;;;;;;;4974181;28;20031;-65
2023/12/12 09:37:41;;;;;;;8.55;3.63;;;;;;;;;;4973888;28;20103;-66
2023/12/12 09:40:06;;;;;;;13.82;3.75;;;;;;;;;;4974500;28;20023;-67
2023/12/12 09:42:34;;;;;;;8.95;3.75;;;;;;;;;;4978049;28;20156;-65
2023/12/12 09:45:00;;;;;;;12.60;4.37;;;;;;;;;;4971524;28;20066;-65
2023/12/12 09:47:29;;;;;;;13.23;3.60;;;;;;;;;;4964934;28;20296;-63
2023/12/12 09:49:55;;;;;;;15.60;3.92;;;;;;;;;;4973043;28;20038;-65
2023/12/12 09:52:21;;;;;;;8.57;2.80;;;;;;;;;;4972598;28;20023;-64
2023/12/12 09:54:47;;;;;;;11.93;3.22;;;;;;;;;;4964350;28;20427;-63
2023/12/12 09:57:15;;;;;;;11.80;3.88;;;;;;;;;;4978010;28;20026;-65
2023/12/12 09:59:40;;;;;;;8.90;3.73;;;;;;;;;;4971790;28;20027;-62
2023/12/12 10:02:06;;;;;;;11.27;2.88;;;;;;;;;;4976659;28;20121;-65
2023/12/12 10:04:31;;;;;;;11.48;3.33;;;;;;;;;;4972410;28;20058;-65
2023/12/12 10:06:57;;;;;;;9.60;3.40;;;;;;;;;;4971453;28;20030;-66
2023/12/12 10:09:22;;;;;;;12.63;3.30;;;;;;;;;;4976828;28;20034;-64
2023/12/12 10:11:48;;;;;;;14.80;3.78;;;;;;;;;;4973223;28;20475;-64
2023/12/12 10:14:13;;;;;;;10.32;3.58;;;;;;;;;;4971313;28;20186;-64
2023/12/12 10:16:38;;;;;;;10.80;3.10;;;;;;;;;;4971700;28;20049;-64
2023/12/12 10:19:03;;;;;;;11.25;3.47;;;;;;;;;;4970781;28;20018;-66
2023/12/12 10:21:29;;;;;;;8.40;3.08;;;;;;;;;;4976977;28;20026;-66
2023/12/12 10:23:54;;;;;;;12.40;4.03;;;;;;;;;;4972101;28;20011;-65
2023/12/12 10:26:30;;;;;;;17.40;3.22;;;;;;;;;;4971063;28;20030;-66
2023/12/12 10:28:55;;;;;;;13.50;3.58;;;;;;;;;;4962847;28;20023;-63
2023/12/12 10:31:21;;;;;;;12.95;2.85;;;;;;;;;;4971503;28;20042;-66
2023/12/12 10:33:46;;;;;;;11.80;3.03;;;;;;;;;;4971730;28;20165;-65
2023/12/12 10:36:12;;;;;;;9.38;2.78;;;;;;;;;;4971611;28;20047;-65
2023/12/12 10:38:38;;;;;;;13.93;2.83;;;;;;;;;;4971089;28;20041;-64
2023/12/12 10:41:17;;;;;;;9.07;3.42;;;;;;;;;;4965707;28;20022;-65
2023/12/12 10:43:43;;;;;;;10.55;4.00;;;;;;;;;;4973572;28;20050;-65
2023/12/12 10:46:12;;;;;;;11.45;3.17;;;;;;;;;;4971129;28;20562;-64
2023/12/12 10:48:41;;;;;;;13.73;4.18;;;;;;;;;;4976561;28;20026;-64
2023/12/12 10:51:06;;;;;;;14.75;3.00;;;;;;;;;;4971856;28;20427;-65
2023/12/12 10:53:32;;;;;;;12.10;3.08;;;;;;;;;;4970383;28;20050;-64
2023/12/12 10:55:58;;;;;;;10.38;2.30;;;;;;;;;;4970645;28;20394;-63
2023/12/12 10:58:23;;;;;;;13.43;2.75;;;;;;;;;;4971783;28;20034;-64
2023/12/12 11:00:49;;;;;;;9.23;2.75;;;;;;;;;;4971248;28;20029;-66
2023/12/12 11:03:15;;;;;;;7.35;2.22;;;;;;;;;;4971313;28;20184;-66
2023/12/12 11:05:40;;;;;;;8.63;2.70;;;;;;;;;;4968494;28;20027;-65
2023/12/12 11:08:07;;;;;;;15.20;3.45;;;;;;;;;;4971289;28;20073;-65
2023/12/12 11:10:33;;;;;;;9.30;2.65;;;;;;;;;;4972510;28;20082;-66
2023/12/12 11:13:00;;;;;;;11.27;3.90;;;;;;;;;;4963330;28;20019;-65
2023/12/12 11:15:26;;;;;;;10.95;2.72;;;;;;;;;;4970617;28;20062;-64
2023/12/12 11:17:51;;;;;;;13.23;2.72;;;;;;;;;;4966326;28;20061;-66
2023/12/12 11:20:17;;;;;;;14.40;3.50;;;;;;;;;;4970203;28;20414;-64
2023/12/12 11:22:44;;;;;;;12.13;3.20;;;;;;;;;;4970063;28;20030;-67
2023/12/12 11:25:16;;;;;;;5.63;3.13;;;;;;;;;;4969404;28;20093;-64
2023/12/12 11:27:44;;;;;;;8.90;2.88;;;;;;;;;;4968573;28;20039;-64
2023/12/12 11:30:09;;;;;;;15.00;3.00;;;;;;;;;;4969972;28;20054;-64
2023/12/12 11:32:35;;;;;;;6.35;2.08;;;;;;;;;;4969246;28;20069;-64
2023/12/12 11:35:06;;;;;;;10.32;2.67;;;;;;;;;;4968622;28;20062;-64
2023/12/12 11:37:39;;;;;;;10.70;2.50;;;;;;;;;;4968496;28;20631;-64
2023/12/12 11:40:05;;;;;;;10.80;2.60;;;;;;;;;;4967789;28;20023;-65
2023/12/12 11:42:30;;;;;;;11.77;2.95;;;;;;;;;;4969295;28;20026;-64
2023/12/12 11:44:57;;;;;;;12.32;2.60;;;;;;;;;;4967846;28;20014;-64
2023/12/12 11:47:27;;;;;;;12.80;2.80;;;;;;;;;;4966920;28;20114;-66
2023/12/12 11:50:11;;;;;;;8.90;2.20;;;;;;;;;;4971363;28;20029;-65
2023/12/12 11:52:36;;;;;;;11.23;2.50;;;;;;;;;;4971225;28;20019;-65
2023/12/12 11:55:01;;;;;;;13.80;2.78;;;;;;;;;;4969460;28;20069;-65
2023/12/12 11:57:27;;;;;;;14.45;2.53;;;;;;;;;;4970575;28;20023;-63
2023/12/12 11:59:52;;;;;;;11.45;2.60;;;;;;;;;;4965049;28;20023;-64
2023/12/12 12:02:17;;;;;;;9.25;2.03;;;;;;;;;;4971634;28;20294;-65
2023/12/12 12:04:42;;;;;;;9.05;2.28;;;;;;;;;;4969378;28;20026;-64
2023/12/12 12:07:07;;;;;;;7.05;2.00;;;;;;;;;;4970813;28;20065;-65
2023/12/12 12:09:33;;;;;;;12.18;3.10;;;;;;;;;;4971357;28;20025;-66
2023/12/12 12:11:58;;;;;;;11.52;2.15;;;;;;;;;;4968001;28;20026;-64
2023/12/12 12:14:24;;;;;;;6.10;2.30;;;;;;;;;;4965869;28;20023;-63
2023/12/12 12:16:58;;;;;;;24.17;2.58;;;;;;;;;;4962863;28;20042;-62
2023/12/12 12:19:27;;;;;;;12.18;1.88;;;;;;;;;;4967646;28;20472;-64
2023/12/12 12:21:52;;;;;;;9.93;2.08;;;;;;;;;;4965788;28;20034;-65
2023/12/12 12:24:17;;;;;;;7.10;1.63;;;;;;;;;;4963362;28;20026;-65
2023/12/12 12:26:43;;;;;;;11.35;2.20;;;;;;;;;;4964742;28;20006;-65
2023/12/12 12:29:11;;;;;;;13.88;2.17;;;;;;;;;;4963412;28;20189;-65
2023/12/12 12:31:38;;;;;;;10.35;2.28;;;;;;;;;;4963301;28;20035;-63
2023/12/12 12:34:14;;;;;;;15.05;2.63;;;;;;;;;;4965097;28;20075;-65
2023/12/12 12:36:42;;;;;;;11.55;2.47;;;;;;;;;;4967604;28;20142;-65
2023/12/12 12:39:09;;;;;;;8.77;2.38;;;;;;;;;;4964600;28;20099;-63
2023/12/12 12:41:34;;;;;;;14.75;2.22;;;;;;;;;;4964887;28;20023;-66
2023/12/12 12:44:00;;;;;;;13.93;2.13;;;;;;;;;;4969693;28;20146;-65
2023/12/12 12:46:25;;;;;;;14.98;2.70;;;;;;;;;;4961904;28;20027;-63
2023/12/12 12:48:50;;;;;;;13.98;2.92;;;;;;;;;;4968849;28;20026;-62
2023/12/12 12:51:15;;;;;;;11.88;2.83;;;;;;;;;;4964008;28;20077;-64
2023/12/12 12:53:40;;;;;;;12.57;2.30;;;;;;;;;;4962044;28;20023;-62
2023/12/12 12:56:06;;;;;;;7.40;2.38;;;;;;;;;;4962518;28;20050;-65
2023/12/12 12:58:33;;;;;;;10.60;2.40;;;;;;;;;;4957330;28;20033;-65
2023/12/12 13:00:59;;;;;;;14.70;2.25;;;;;;;;;;4966369;28;20038;-65
2023/12/12 13:03:25;;;;;;;14.70;2.83;;;;;;;;;;4962884;28;20019;-66
2023/12/12 13:05:50;;;;;;;12.02;2.58;;;;;;;;;;4960819;28;20058;-65
2023/12/12 13:08:17;;;;;;;10.45;2.65;;;;;;;;;;4966347;28;20037;-65
2023/12/12 13:10:42;;;;;;;13.70;2.70;;;;;;;;;;4969257;28;20027;-64
2023/12/12 13:13:07;;;;;;;11.00;2.97;;;;;;;;;;4969574;28;20093;-64
2023/12/12 13:15:33;;;;;;;27.92;3.53;;;;;;;;;;4964716;28;20390;-66
2023/12/12 13:17:58;;;;;;;17.15;3.35;;;;;;;;;;4968164;28;20038;-65
2023/12/12 13:20:23;;;;;;;12.38;2.90;;;;;;;;;;4966373;28;20027;-65
2023/12/12 13:22:48;;;;;;;18.10;2.83;;;;;;;;;;4968028;28;20015;-66
2023/12/12 13:25:13;;;;;;;15.52;3.83;;;;;;;;;;4966736;28;20026;-66
2023/12/12 13:27:39;;;;;;;16.10;3.13;;;;;;;;;;4966961;28;20027;-61
2023/12/12 13:30:09;;;;;;;11.95;3.40;;;;;;;;;;4968084;28;20085;-62
2023/12/12 13:32:35;;;;;;;9.88;2.95;;;;;;;;;;4969300;28;20058;-63
2023/12/12 13:35:01;;;;;;;16.58;2.80;;;;;;;;;;4965528;28;20065;-66
2023/12/12 13:37:26;;;;;;;15.10;2.95;;;;;;;;;;4971580;28;20062;-67
2023/12/12 13:39:51;;;;;;;12.55;2.47;;;;;;;;;;4970518;28;20097;-66
2023/12/12 13:42:16;;;;;;;12.73;2.90;;;;;;;;;;4971259;28;20153;-66
2023/12/12 13:44:42;;;;;;;14.63;2.65;;;;;;;;;;4970830;28;20121;-65
2023/12/12 13:47:07;;;;;;;13.43;2.42;;;;;;;;;;4970389;28;20506;-65
2023/12/12 13:49:32;;;;;;;15.02;2.53;;;;;;;;;;4967366;28;20502;-65
2023/12/12 13:51:58;;;;;;;10.43;2.33;;;;;;;;;;4968743;28;20138;-65
2023/12/12 13:54:24;;;;;;;16.95;3.25;;;;;;;;;;4969179;28;20035;-67
2023/12/12 13:56:50;;;;;;;9.00;2.60;;;;;;;;;;4967825;28;20018;-65
2023/12/12 13:59:16;;;;;;;16.85;2.78;;;;;;;;;;4969631;28;20487;-67
2023/12/12 14:01:41;;;;;;;12.80;2.42;;;;;;;;;;4966011;28;20041;-63
2023/12/12 14:04:06;;;;;;;8.35;2.50;;;;;;;;;;4971163;28;20580;-65
2023/12/12 14:06:32;;;;;;;10.43;2.33;;;;;;;;;;4969541;28;20031;-65
2023/12/12 14:08:57;;;;;;;13.18;2.00;;;;;;;;;;4971857;28;20200;-64
2023/12/12 14:11:24;;;;;;;20.42;3.05;;;;;;;;;;4971966;28;20027;-65
2023/12/12 14:13:50;;;;;;;25.08;2.85;;;;;;;;;;4975845;28;20386;-66
2023/12/12 14:16:15;;;;;;;11.20;1.85;;;;;;;;;;4971424;28;20023;-66
2023/12/12 14:18:41;;;;;;;16.17;2.15;;;;;;;;;;4972030;28;20045;-65
2023/12/12 14:21:09;;;;;;;11.05;2.53;;;;;;;;;;4972837;28;20011;-66
2023/12/12 14:23:34;;;;;;;11.90;2.35;;;;;;;;;;4972721;28;20058;-64
2023/12/12 14:25:59;;;;;;;18.70;3.13;;;;;;;;;;4972993;28;20023;-65
2023/12/12 14:28:25;;;;;;;17.85;3.40;;;;;;;;;;4970654;28;20030;-62